sensor_id;sensor_type;location;lat;lon;timestamp;temperature;humidity
16907;DHT22;8570;52.380;4.654;2022-12-07T00:04:02;5.00;99.90
16907;DHT22;8570;52.380;4.654;2022-12-07T00:09:11;5.00;99.90
16907;DHT22;8570;52.380;4.654;2022-12-07T00:14:15;5.00;99.90
16907;DHT22;8570;52.380;4.654;2022-12-07T00:19:17;5.00;99.90
16907;DHT22;8570;52.380;4.654;2022-12-07T00:24:21;4.90;99.90
16907;DHT22;8570;52.380;4.654;2022-12-07T00:29:23;4.90;99.90
16907;DHT22;8570;52.380;4.654;2022-12-07T00:34:25;4.90;99.90
16907;DHT22;8570;52.380;4.654;2022-12-07T00:39:28;4.90;99.90
16907;DHT22;8570;52.380;4.654;2022-12-07T00:44:30;4.90;99.90
16907;DHT22;8570;52.380;4.654;2022-12-07T00:49:32;4.90;99.90
16907;DHT22;8570;52.380;4.654;2022-12-07T00:54:35;4.90;99.90
16907;DHT22;8570;52.380;4.654;2022-12-07T00:59:37;4.80;99.90
16907;DHT22;8570;52.380;4.654;2022-12-07T01:04:39;4.80;99.90
16907;DHT22;8570;52.380;4.654;2022-12-07T01:09:43;4.80;99.90
16907;DHT22;8570;52.380;4.654;2022-12-07T01:14:45;4.80;99.90
16907;DHT22;8570;52.380;4.654;2022-12-07T01:19:46;4.80;99.90
16907;DHT22;8570;52.380;4.654;2022-12-07T01:24:50;4.90;99.90
16907;DHT22;8570;52.380;4.654;2022-12-07T01:29:52;4.90;99.90
16907;DHT22;8570;52.380;4.654;2022-12-07T01:34:54;5.00;99.90
16907;DHT22;8570;52.380;4.654;2022-12-07T01:39:57;5.00;99.90
16907;DHT22;8570;52.380;4.654;2022-12-07T01:45:38;5.00;99.90
16907;DHT22;8570;52.380;4.654;2022-12-07T01:50:41;5.10;99.90
16907;DHT22;8570;52.380;4.654;2022-12-07T01:55:48;5.10;99.90
16907;DHT22;8570;52.380;4.654;2022-12-07T02:00:51;5.10;99.90
16907;DHT22;8570;52.380;4.654;2022-12-07T02:05:54;5.20;99.90
16907;DHT22;8570;52.380;4.654;2022-12-07T02:10:57;5.20;99.90
16907;DHT22;8570;52.380;4.654;2022-12-07T02:16:18;5.20;99.90
16907;DHT22;8570;52.380;4.654;2022-12-07T02:21:30;5.20;99.90
16907;DHT22;8570;52.380;4.654;2022-12-07T02:26:55;5.10;99.90
16907;DHT22;8570;52.380;4.654;2022-12-07T02:32:08;5.10;99.90
16907;DHT22;8570;52.380;4.654;2022-12-07T02:37:21;5.00;99.90
16907;DHT22;8570;52.380;4.654;2022-12-07T02:42:32;5.10;99.90
16907;DHT22;8570;52.380;4.654;2022-12-07T02:47:37;5.00;99.90
16907;DHT22;8570;52.380;4.654;2022-12-07T02:52:40;5.00;99.90
16907;DHT22;8570;52.380;4.654;2022-12-07T02:57:54;5.00;99.90
16907;DHT22;8570;52.380;4.654;2022-12-07T03:03:06;4.90;99.90
16907;DHT22;8570;52.380;4.654;2022-12-07T03:08:13;4.90;99.90
16907;DHT22;8570;52.380;4.654;2022-12-07T03:13:23;4.90;99.90
16907;DHT22;8570;52.380;4.654;2022-12-07T03:18:31;4.90;99.90
16907;DHT22;8570;52.380;4.654;2022-12-07T03:23:37;4.90;99.90
16907;DHT22;8570;52.380;4.654;2022-12-07T03:28:44;4.90;99.90
16907;DHT22;8570;52.380;4.654;2022-12-07T03:33:53;4.90;99.90
16907;DHT22;8570;52.380;4.654;2022-12-07T03:39:03;4.90;99.90
16907;DHT22;8570;52.380;4.654;2022-12-07T03:44:07;4.90;99.90
16907;DHT22;8570;52.380;4.654;2022-12-07T03:49:14;4.90;99.90
16907;DHT22;8570;52.380;4.654;2022-12-07T03:54:23;4.90;99.90
16907;DHT22;8570;52.380;4.654;2022-12-07T03:59:26;4.90;99.90
16907;DHT22;8570;52.380;4.654;2022-12-07T04:04:30;4.90;99.90
16907;DHT22;8570;52.380;4.654;2022-12-07T04:09:32;4.90;99.90
16907;DHT22;8570;52.380;4.654;2022-12-07T04:14:34;4.90;99.90
16907;DHT22;8570;52.380;4.654;2022-12-07T04:19:38;5.00;99.90
16907;DHT22;8570;52.380;4.654;2022-12-07T04:24:39;5.10;99.90
16907;DHT22;8570;52.380;4.654;2022-12-07T04:29:41;5.10;99.90
16907;DHT22;8570;52.380;4.654;2022-12-07T04:34:45;5.20;99.90
16907;DHT22;8570;52.380;4.654;2022-12-07T04:39:47;5.20;99.90
16907;DHT22;8570;52.380;4.654;2022-12-07T04:44:49;5.30;99.90
16907;DHT22;8570;52.380;4.654;2022-12-07T04:49:52;5.30;99.90
16907;DHT22;8570;52.380;4.654;2022-12-07T04:54:54;5.30;99.90
16907;DHT22;8570;52.380;4.654;2022-12-07T04:59:56;5.30;99.90
16907;DHT22;8570;52.380;4.654;2022-12-07T05:04:59;5.30;99.90
16907;DHT22;8570;52.380;4.654;2022-12-07T05:10:01;5.30;99.90
16907;DHT22;8570;52.380;4.654;2022-12-07T05:15:04;5.30;99.90
16907;DHT22;8570;52.380;4.654;2022-12-07T05:20:08;5.30;99.90
16907;DHT22;8570;52.380;4.654;2022-12-07T05:25:10;5.30;99.90
16907;DHT22;8570;52.380;4.654;2022-12-07T05:35:16;5.30;99.90
16907;DHT22;8570;52.380;4.654;2022-12-07T05:40:18;5.20;99.90
16907;DHT22;8570;52.380;4.654;2022-12-07T05:45:20;5.20;99.90
16907;DHT22;8570;52.380;4.654;2022-12-07T05:50:23;5.20;99.90
16907;DHT22;8570;52.380;4.654;2022-12-07T05:55:25;5.20;99.90
16907;DHT22;8570;52.380;4.654;2022-12-07T06:00:27;5.10;99.90
16907;DHT22;8570;52.380;4.654;2022-12-07T06:05:30;5.10;99.90
16907;DHT22;8570;52.380;4.654;2022-12-07T06:10:32;5.10;99.90
16907;DHT22;8570;52.380;4.654;2022-12-07T06:15:35;5.10;99.90
16907;DHT22;8570;52.380;4.654;2022-12-07T06:20:39;5.10;99.90
16907;DHT22;8570;52.380;4.654;2022-12-07T06:25:45;5.00;99.90
16907;DHT22;8570;52.380;4.654;2022-12-07T06:30:47;5.00;99.90
16907;DHT22;8570;52.380;4.654;2022-12-07T06:35:50;5.00;99.90
16907;DHT22;8570;52.380;4.654;2022-12-07T06:40:52;4.90;99.90
16907;DHT22;8570;52.380;4.654;2022-12-07T06:45:54;4.90;99.90
16907;DHT22;8570;52.380;4.654;2022-12-07T06:50:57;4.90;99.90
16907;DHT22;8570;52.380;4.654;2022-12-07T06:55:59;4.80;99.90
16907;DHT22;8570;52.380;4.654;2022-12-07T07:01:02;4.80;99.90
16907;DHT22;8570;52.380;4.654;2022-12-07T07:06:08;4.70;99.90
16907;DHT22;8570;52.380;4.654;2022-12-07T07:11:10;4.60;99.90
16907;DHT22;8570;52.380;4.654;2022-12-07T07:16:12;4.60;99.90
16907;DHT22;8570;52.380;4.654;2022-12-07T07:21:15;4.50;99.90
16907;DHT22;8570;52.380;4.654;2022-12-07T07:26:17;4.50;99.90
16907;DHT22;8570;52.380;4.654;2022-12-07T07:31:19;4.50;99.90
16907;DHT22;8570;52.380;4.654;2022-12-07T07:36:22;4.50;99.90
16907;DHT22;8570;52.380;4.654;2022-12-07T07:41:24;4.50;99.90
16907;DHT22;8570;52.380;4.654;2022-12-07T07:46:26;4.60;99.90
16907;DHT22;8570;52.380;4.654;2022-12-07T07:51:29;4.60;99.90
16907;DHT22;8570;52.380;4.654;2022-12-07T07:56:31;4.70;99.90
16907;DHT22;8570;52.380;4.654;2022-12-07T08:01:33;4.70;99.90
16907;DHT22;8570;52.380;4.654;2022-12-07T08:06:37;4.70;99.90
16907;DHT22;8570;52.380;4.654;2022-12-07T08:11:39;4.70;99.90
16907;DHT22;8570;52.380;4.654;2022-12-07T08:16:40;4.70;99.90
16907;DHT22;8570;52.380;4.654;2022-12-07T08:21:44;4.60;99.90
16907;DHT22;8570;52.380;4.654;2022-12-07T08:26:45;4.70;99.90
16907;DHT22;8570;52.380;4.654;2022-12-07T08:31:48;4.70;99.90
16907;DHT22;8570;52.380;4.654;2022-12-07T08:36:56;4.70;99.90
16907;DHT22;8570;52.380;4.654;2022-12-07T08:41:57;4.70;99.90
16907;DHT22;8570;52.380;4.654;2022-12-07T08:47:02;4.70;99.90
16907;DHT22;8570;52.380;4.654;2022-12-07T08:52:07;4.70;99.90
16907;DHT22;8570;52.380;4.654;2022-12-07T08:57:09;4.70;99.90
16907;DHT22;8570;52.380;4.654;2022-12-07T09:02:11;4.60;99.90
16907;DHT22;8570;52.380;4.654;2022-12-07T09:07:16;4.60;99.90
16907;DHT22;8570;52.380;4.654;2022-12-07T09:12:18;4.60;99.90
16907;DHT22;8570;52.380;4.654;2022-12-07T09:17:19;4.60;99.90
16907;DHT22;8570;52.380;4.654;2022-12-07T09:22:23;4.60;99.90
16907;DHT22;8570;52.380;4.654;2022-12-07T09:27:25;4.60;99.90
16907;DHT22;8570;52.380;4.654;2022-12-07T09:32:27;4.70;99.90
16907;DHT22;8570;52.380;4.654;2022-12-07T09:37:31;4.80;99.90
16907;DHT22;8570;52.380;4.654;2022-12-07T09:42:37;4.90;99.90
16907;DHT22;8570;52.380;4.654;2022-12-07T09:47:40;5.00;99.90
16907;DHT22;8570;52.380;4.654;2022-12-07T09:52:44;5.00;99.90
16907;DHT22;8570;52.380;4.654;2022-12-07T09:57:48;5.10;99.90
16907;DHT22;8570;52.380;4.654;2022-12-07T10:02:55;5.20;99.90
16907;DHT22;8570;52.380;4.654;2022-12-07T10:07:58;5.30;99.90
16907;DHT22;8570;52.380;4.654;2022-12-07T10:13:02;5.50;99.90
16907;DHT22;8570;52.380;4.654;2022-12-07T10:18:17;5.60;99.90
16907;DHT22;8570;52.380;4.654;2022-12-07T10:23:21;5.70;99.90
16907;DHT22;8570;52.380;4.654;2022-12-07T10:28:23;5.90;99.90
16907;DHT22;8570;52.380;4.654;2022-12-07T10:33:30;5.90;99.90
16907;DHT22;8570;52.380;4.654;2022-12-07T10:38:33;5.90;99.90
16907;DHT22;8570;52.380;4.654;2022-12-07T10:43:35;6.00;99.90
16907;DHT22;8570;52.380;4.654;2022-12-07T10:48:42;6.00;99.90
16907;DHT22;8570;52.380;4.654;2022-12-07T10:53:56;6.20;99.90
16907;DHT22;8570;52.380;4.654;2022-12-07T10:59:15;6.30;99.90
16907;DHT22;8570;52.380;4.654;2022-12-07T11:04:29;6.30;99.90
16907;DHT22;8570;52.380;4.654;2022-12-07T11:09:56;6.80;99.90
16907;DHT22;8570;52.380;4.654;2022-12-07T11:15:08;7.20;99.90
16907;DHT22;8570;52.380;4.654;2022-12-07T11:20:19;7.10;99.90
16907;DHT22;8570;52.380;4.654;2022-12-07T11:25:31;7.00;99.90
16907;DHT22;8570;52.380;4.654;2022-12-07T11:30:34;7.30;99.90
16907;DHT22;8570;52.380;4.654;2022-12-07T11:36:02;7.90;99.90
16907;DHT22;8570;52.380;4.654;2022-12-07T11:41:06;8.20;99.90
16907;DHT22;8570;52.380;4.654;2022-12-07T11:46:15;8.00;99.90
16907;DHT22;8570;52.380;4.654;2022-12-07T11:51:20;7.80;99.90
16907;DHT22;8570;52.380;4.654;2022-12-07T11:56:26;7.60;99.90
16907;DHT22;8570;52.380;4.654;2022-12-07T12:01:41;7.40;99.90
16907;DHT22;8570;52.380;4.654;2022-12-07T12:06:46;7.30;99.90
16907;DHT22;8570;52.380;4.654;2022-12-07T12:12:02;7.30;99.90
16907;DHT22;8570;52.380;4.654;2022-12-07T12:17:30;7.30;99.90
16907;DHT22;8570;52.380;4.654;2022-12-07T12:22:39;7.30;99.90
16907;DHT22;8570;52.380;4.654;2022-12-07T12:27:46;7.20;99.90
16907;DHT22;8570;52.380;4.654;2022-12-07T12:32:48;6.90;99.90
16907;DHT22;8570;52.380;4.654;2022-12-07T12:37:53;6.80;99.90
16907;DHT22;8570;52.380;4.654;2022-12-07T12:42:57;6.60;99.90
16907;DHT22;8570;52.380;4.654;2022-12-07T12:47:59;6.50;99.90
16907;DHT22;8570;52.380;4.654;2022-12-07T12:53:20;6.50;99.90
16907;DHT22;8570;52.380;4.654;2022-12-07T12:58:35;6.50;99.90
16907;DHT22;8570;52.380;4.654;2022-12-07T13:03:38;6.50;99.90
16907;DHT22;8570;52.380;4.654;2022-12-07T13:08:41;6.40;99.90
16907;DHT22;8570;52.380;4.654;2022-12-07T13:13:45;6.40;99.90
16907;DHT22;8570;52.380;4.654;2022-12-07T13:18:47;6.50;99.90
16907;DHT22;8570;52.380;4.654;2022-12-07T13:23:55;6.40;99.90
16907;DHT22;8570;52.380;4.654;2022-12-07T13:29:09;6.50;99.90
16907;DHT22;8570;52.380;4.654;2022-12-07T13:34:29;6.50;99.90
16907;DHT22;8570;52.380;4.654;2022-12-07T13:39:33;6.50;99.90
16907;DHT22;8570;52.380;4.654;2022-12-07T13:44:40;6.50;99.90
16907;DHT22;8570;52.380;4.654;2022-12-07T13:49:47;6.50;99.90
16907;DHT22;8570;52.380;4.654;2022-12-07T13:54:56;6.60;99.90
16907;DHT22;8570;52.380;4.654;2022-12-07T14:00:06;6.60;99.90
16907;DHT22;8570;52.380;4.654;2022-12-07T14:05:23;6.70;99.90
16907;DHT22;8570;52.380;4.654;2022-12-07T14:10:28;6.70;99.90
16907;DHT22;8570;52.380;4.654;2022-12-07T14:15:33;6.70;99.90
16907;DHT22;8570;52.380;4.654;2022-12-07T14:20:37;6.60;99.90
16907;DHT22;8570;52.380;4.654;2022-12-07T14:25:46;6.60;99.90
16907;DHT22;8570;52.380;4.654;2022-12-07T14:30:50;6.60;99.90
16907;DHT22;8570;52.380;4.654;2022-12-07T14:35:52;6.60;99.90
16907;DHT22;8570;52.380;4.654;2022-12-07T14:40:56;6.60;99.90
16907;DHT22;8570;52.380;4.654;2022-12-07T14:46:21;6.50;99.90
16907;DHT22;8570;52.380;4.654;2022-12-07T14:51:23;6.50;99.90
16907;DHT22;8570;52.380;4.654;2022-12-07T14:56:25;6.50;99.90
16907;DHT22;8570;52.380;4.654;2022-12-07T15:01:29;6.40;99.90
16907;DHT22;8570;52.380;4.654;2022-12-07T15:06:32;6.30;99.90
16907;DHT22;8570;52.380;4.654;2022-12-07T15:11:34;6.30;99.90
16907;DHT22;8570;52.380;4.654;2022-12-07T15:16:38;6.30;99.90
16907;DHT22;8570;52.380;4.654;2022-12-07T15:21:41;6.30;99.90
16907;DHT22;8570;52.380;4.654;2022-12-07T15:26:44;6.20;99.90
16907;DHT22;8570;52.380;4.654;2022-12-07T15:31:48;6.20;99.90
16907;DHT22;8570;52.380;4.654;2022-12-07T15:36:49;6.20;99.90
16907;DHT22;8570;52.380;4.654;2022-12-07T15:41:52;6.20;99.90
16907;DHT22;8570;52.380;4.654;2022-12-07T15:46:55;6.20;99.90
16907;DHT22;8570;52.380;4.654;2022-12-07T15:51:57;6.20;99.90
16907;DHT22;8570;52.380;4.654;2022-12-07T15:56:59;6.20;99.90
16907;DHT22;8570;52.380;4.654;2022-12-07T16:02:02;6.20;99.90
16907;DHT22;8570;52.380;4.654;2022-12-07T16:07:05;6.20;99.90
16907;DHT22;8570;52.380;4.654;2022-12-07T16:12:07;6.20;99.90
16907;DHT22;8570;52.380;4.654;2022-12-07T16:17:10;6.20;99.90
16907;DHT22;8570;52.380;4.654;2022-12-07T16:22:13;6.20;99.90
16907;DHT22;8570;52.380;4.654;2022-12-07T16:27:14;6.20;99.90
16907;DHT22;8570;52.380;4.654;2022-12-07T16:32:18;6.20;99.90
16907;DHT22;8570;52.380;4.654;2022-12-07T16:37:19;6.20;99.90
16907;DHT22;8570;52.380;4.654;2022-12-07T16:42:21;6.20;99.90
16907;DHT22;8570;52.380;4.654;2022-12-07T16:47:25;6.20;99.90
16907;DHT22;8570;52.380;4.654;2022-12-07T16:52:26;6.20;99.90
16907;DHT22;8570;52.380;4.654;2022-12-07T16:57:30;6.20;99.90
16907;DHT22;8570;52.380;4.654;2022-12-07T17:02:33;6.10;99.90
16907;DHT22;8570;52.380;4.654;2022-12-07T17:07:36;6.10;99.90
16907;DHT22;8570;52.380;4.654;2022-12-07T17:12:38;6.10;99.90
16907;DHT22;8570;52.380;4.654;2022-12-07T17:17:42;6.10;99.90
16907;DHT22;8570;52.380;4.654;2022-12-07T17:22:43;6.10;99.90
16907;DHT22;8570;52.380;4.654;2022-12-07T17:27:46;6.10;99.90
16907;DHT22;8570;52.380;4.654;2022-12-07T17:32:52;6.10;99.90
16907;DHT22;8570;52.380;4.654;2022-12-07T17:37:54;6.00;99.90
16907;DHT22;8570;52.380;4.654;2022-12-07T17:42:56;6.00;99.90
16907;DHT22;8570;52.380;4.654;2022-12-07T17:47:59;5.90;99.90
16907;DHT22;8570;52.380;4.654;2022-12-07T17:53:01;5.90;99.90
16907;DHT22;8570;52.380;4.654;2022-12-07T17:58:12;5.80;99.90
16907;DHT22;8570;52.380;4.654;2022-12-07T18:03:15;5.80;99.90
16907;DHT22;8570;52.380;4.654;2022-12-07T18:08:17;5.80;99.90
16907;DHT22;8570;52.380;4.654;2022-12-07T18:13:19;5.80;99.90
16907;DHT22;8570;52.380;4.654;2022-12-07T18:18:36;5.70;99.90
16907;DHT22;8570;52.380;4.654;2022-12-07T18:23:38;5.70;99.90
16907;DHT22;8570;52.380;4.654;2022-12-07T18:28:41;5.70;99.90
16907;DHT22;8570;52.380;4.654;2022-12-07T18:33:45;5.70;99.90
16907;DHT22;8570;52.380;4.654;2022-12-07T18:38:47;5.70;99.90
16907;DHT22;8570;52.380;4.654;2022-12-07T18:43:49;5.70;99.90
16907;DHT22;8570;52.380;4.654;2022-12-07T18:48:53;5.60;99.90
16907;DHT22;8570;52.380;4.654;2022-12-07T18:53:57;5.50;99.90
16907;DHT22;8570;52.380;4.654;2022-12-07T18:59:01;5.60;99.90
16907;DHT22;8570;52.380;4.654;2022-12-07T19:04:22;5.50;99.90
16907;DHT22;8570;52.380;4.654;2022-12-07T19:09:24;5.40;99.90
16907;DHT22;8570;52.380;4.654;2022-12-07T19:14:28;5.40;99.90
16907;DHT22;8570;52.380;4.654;2022-12-07T19:19:33;5.40;99.90
16907;DHT22;8570;52.380;4.654;2022-12-07T19:24:35;5.30;99.90
16907;DHT22;8570;52.380;4.654;2022-12-07T19:29:37;5.30;99.90
16907;DHT22;8570;52.380;4.654;2022-12-07T19:34:42;5.30;99.90
16907;DHT22;8570;52.380;4.654;2022-12-07T19:39:44;5.30;99.90
16907;DHT22;8570;52.380;4.654;2022-12-07T19:44:48;5.30;99.90
16907;DHT22;8570;52.380;4.654;2022-12-07T19:49:51;5.30;99.90
16907;DHT22;8570;52.380;4.654;2022-12-07T19:54:53;5.30;99.90
16907;DHT22;8570;52.380;4.654;2022-12-07T19:59:55;5.30;99.90
16907;DHT22;8570;52.380;4.654;2022-12-07T20:04:59;5.30;99.90
16907;DHT22;8570;52.380;4.654;2022-12-07T20:10:01;5.30;99.90
16907;DHT22;8570;52.380;4.654;2022-12-07T20:15:03;5.30;99.90
16907;DHT22;8570;52.380;4.654;2022-12-07T20:20:08;5.30;99.90
16907;DHT22;8570;52.380;4.654;2022-12-07T20:25:10;5.30;99.90
16907;DHT22;8570;52.380;4.654;2022-12-07T20:30:12;5.30;99.90
16907;DHT22;8570;52.380;4.654;2022-12-07T20:35:15;5.30;99.90
16907;DHT22;8570;52.380;4.654;2022-12-07T20:40:17;5.30;99.90
16907;DHT22;8570;52.380;4.654;2022-12-07T20:45:19;5.20;99.90
16907;DHT22;8570;52.380;4.654;2022-12-07T20:50:23;5.30;99.90
16907;DHT22;8570;52.380;4.654;2022-12-07T20:55:24;5.20;99.90
16907;DHT22;8570;52.380;4.654;2022-12-07T21:00:26;5.20;99.90
16907;DHT22;8570;52.380;4.654;2022-12-07T21:05:30;5.20;99.90
16907;DHT22;8570;52.380;4.654;2022-12-07T21:10:32;5.20;99.90
16907;DHT22;8570;52.380;4.654;2022-12-07T21:15:33;5.20;99.90
16907;DHT22;8570;52.380;4.654;2022-12-07T21:20:40;5.10;99.90
16907;DHT22;8570;52.380;4.654;2022-12-07T21:25:41;5.20;99.90
16907;DHT22;8570;52.380;4.654;2022-12-07T21:30:43;5.30;99.90
16907;DHT22;8570;52.380;4.654;2022-12-07T21:35:47;5.30;99.90
16907;DHT22;8570;52.380;4.654;2022-12-07T21:40:49;5.30;99.90
16907;DHT22;8570;52.380;4.654;2022-12-07T21:45:51;5.30;99.90
16907;DHT22;8570;52.380;4.654;2022-12-07T21:50:54;5.30;99.90
16907;DHT22;8570;52.380;4.654;2022-12-07T21:55:56;5.30;99.90
16907;DHT22;8570;52.380;4.654;2022-12-07T22:00:58;5.30;99.90
16907;DHT22;8570;52.380;4.654;2022-12-07T22:06:01;5.30;99.90
16907;DHT22;8570;52.380;4.654;2022-12-07T22:11:03;5.30;99.90
16907;DHT22;8570;52.380;4.654;2022-12-07T22:16:06;5.40;99.90
16907;DHT22;8570;52.380;4.654;2022-12-07T22:21:09;5.40;99.90
16907;DHT22;8570;52.380;4.654;2022-12-07T22:26:14;5.40;99.90
16907;DHT22;8570;52.380;4.654;2022-12-07T22:31:17;5.40;99.90
16907;DHT22;8570;52.380;4.654;2022-12-07T22:36:21;5.40;99.90
16907;DHT22;8570;52.380;4.654;2022-12-07T22:41:24;5.40;99.90
16907;DHT22;8570;52.380;4.654;2022-12-07T22:46:26;5.30;99.90
16907;DHT22;8570;52.380;4.654;2022-12-07T22:51:31;5.30;99.90
16907;DHT22;8570;52.380;4.654;2022-12-07T22:56:35;5.30;99.90
16907;DHT22;8570;52.380;4.654;2022-12-07T23:01:37;5.40;99.90
16907;DHT22;8570;52.380;4.654;2022-12-07T23:06:40;5.30;99.90
16907;DHT22;8570;52.380;4.654;2022-12-07T23:11:42;5.40;99.90
16907;DHT22;8570;52.380;4.654;2022-12-07T23:17:02;5.40;99.90
16907;DHT22;8570;52.380;4.654;2022-12-07T23:22:05;5.30;99.90
16907;DHT22;8570;52.380;4.654;2022-12-07T23:27:07;5.30;99.90
16907;DHT22;8570;52.380;4.654;2022-12-07T23:32:09;5.30;99.90
16907;DHT22;8570;52.380;4.654;2022-12-07T23:37:12;5.30;99.90
16907;DHT22;8570;52.380;4.654;2022-12-07T23:42:14;5.30;99.90
16907;DHT22;8570;52.380;4.654;2022-12-07T23:47:16;5.30;99.90
16907;DHT22;8570;52.380;4.654;2022-12-07T23:52:19;5.30;99.90
16907;DHT22;8570;52.380;4.654;2022-12-07T23:57:21;5.30;99.90
